sensor_id;sensor_type;location;lat;lon;timestamp;P1;P2;P0
42410;PMS5003;28056;51.112;0.984;2023-04-25T00:04:47;9;5;
42410;PMS5003;28056;51.112;0.984;2023-04-25T00:07:15;5;5;
42410;PMS5003;28056;51.112;0.984;2023-04-25T00:09:42;6;6;
42410;PMS5003;28056;51.112;0.984;2023-04-25T00:12:09;7;5;
42410;PMS5003;28056;51.112;0.984;2023-04-25T00:14:36;5;3;
42410;PMS5003;28056;51.112;0.984;2023-04-25T00:17:03;11;7;
42410;PMS5003;28056;51.112;0.984;2023-04-25T00:19:30;7;7;
42410;PMS5003;28056;51.112;0.984;2023-04-25T00:21:57;12;9;
42410;PMS5003;28056;51.112;0.984;2023-04-25T00:24:24;11;7;
42410;PMS5003;28056;51.112;0.984;2023-04-25T00:26:51;9;6;
42410;PMS5003;28056;51.112;0.984;2023-04-25T00:29:19;5;3;
42410;PMS5003;28056;51.112;0.984;2023-04-25T00:31:46;9;5;
42410;PMS5003;28056;51.112;0.984;2023-04-25T00:34:14;13;6;
42410;PMS5003;28056;51.112;0.984;2023-04-25T00:36:41;10;6;
42410;PMS5003;28056;51.112;0.984;2023-04-25T00:39:09;7;7;
42410;PMS5003;28056;51.112;0.984;2023-04-25T00:41:36;10;6;
42410;PMS5003;28056;51.112;0.984;2023-04-25T00:44:05;10;10;
42410;PMS5003;28056;51.112;0.984;2023-04-25T00:46:33;10;9;
42410;PMS5003;28056;51.112;0.984;2023-04-25T00:49:01;5;5;
42410;PMS5003;28056;51.112;0.984;2023-04-25T00:51:34;7;7;
42410;PMS5003;28056;51.112;0.984;2023-04-25T00:54:02;7;5;
42410;PMS5003;28056;51.112;0.984;2023-04-25T00:56:30;10;6;
42410;PMS5003;28056;51.112;0.984;2023-04-25T00:58:57;6;6;
42410;PMS5003;28056;51.112;0.984;2023-04-25T01:01:24;7;5;
42410;PMS5003;28056;51.112;0.984;2023-04-25T01:03:52;11;6;
42410;PMS5003;28056;51.112;0.984;2023-04-25T01:06:20;11;9;
42410;PMS5003;28056;51.112;0.984;2023-04-25T01:08:47;7;7;
42410;PMS5003;28056;51.112;0.984;2023-04-25T01:11:16;10;7;
42410;PMS5003;28056;51.112;0.984;2023-04-25T01:13:43;11;9;
42410;PMS5003;28056;51.112;0.984;2023-04-25T01:16:10;9;9;
42410;PMS5003;28056;51.112;0.984;2023-04-25T01:18:38;7;6;
42410;PMS5003;28056;51.112;0.984;2023-04-25T01:21:07;11;7;
42410;PMS5003;28056;51.112;0.984;2023-04-25T01:23:35;6;6;
42410;PMS5003;28056;51.112;0.984;2023-04-25T01:26:04;13;10;
42410;PMS5003;28056;51.112;0.984;2023-04-25T01:28:33;10;7;
42410;PMS5003;28056;51.112;0.984;2023-04-25T01:31:00;13;12;
42410;PMS5003;28056;51.112;0.984;2023-04-25T01:33:28;6;4;
42410;PMS5003;28056;51.112;0.984;2023-04-25T01:35:56;13;10;
42410;PMS5003;28056;51.112;0.984;2023-04-25T01:38:23;6;5;
42410;PMS5003;28056;51.112;0.984;2023-04-25T01:40:51;13;10;
42410;PMS5003;28056;51.112;0.984;2023-04-25T01:43:18;9;8;
42410;PMS5003;28056;51.112;0.984;2023-04-25T01:45:46;10;6;
42410;PMS5003;28056;51.112;0.984;2023-04-25T01:48:14;6;6;
42410;PMS5003;28056;51.112;0.984;2023-04-25T01:50:41;5;5;
42410;PMS5003;28056;51.112;0.984;2023-04-25T01:53:08;9;4;
42410;PMS5003;28056;51.112;0.984;2023-04-25T01:55:38;8;8;
42410;PMS5003;28056;51.112;0.984;2023-04-25T01:58:05;10;9;
42410;PMS5003;28056;51.112;0.984;2023-04-25T02:00:32;6;6;
42410;PMS5003;28056;51.112;0.984;2023-04-25T02:03:00;8;5;
42410;PMS5003;28056;51.112;0.984;2023-04-25T02:05:27;6;6;
42410;PMS5003;28056;51.112;0.984;2023-04-25T02:08:00;8;6;
42410;PMS5003;28056;51.112;0.984;2023-04-25T02:10:28;8;6;
42410;PMS5003;28056;51.112;0.984;2023-04-25T02:12:55;12;8;
42410;PMS5003;28056;51.112;0.984;2023-04-25T02:15:24;6;6;
42410;PMS5003;28056;51.112;0.984;2023-04-25T02:17:57;5;5;
42410;PMS5003;28056;51.112;0.984;2023-04-25T02:20:24;17;8;
42410;PMS5003;28056;51.112;0.984;2023-04-25T02:22:52;13;5;
42410;PMS5003;28056;51.112;0.984;2023-04-25T02:25:19;6;6;
42410;PMS5003;28056;51.112;0.984;2023-04-25T02:27:47;5;5;
42410;PMS5003;28056;51.112;0.984;2023-04-25T02:30:15;4;4;
42410;PMS5003;28056;51.112;0.984;2023-04-25T02:32:42;8;5;
42410;PMS5003;28056;51.112;0.984;2023-04-25T02:35:14;5;5;
42410;PMS5003;28056;51.112;0.984;2023-04-25T02:37:41;8;8;
42410;PMS5003;28056;51.112;0.984;2023-04-25T02:40:09;5;5;
42410;PMS5003;28056;51.112;0.984;2023-04-25T02:42:37;5;5;
42410;PMS5003;28056;51.112;0.984;2023-04-25T02:45:05;6;5;
42410;PMS5003;28056;51.112;0.984;2023-04-25T02:47:34;5;5;
42410;PMS5003;28056;51.112;0.984;2023-04-25T02:50:01;8;5;
42410;PMS5003;28056;51.112;0.984;2023-04-25T02:52:28;6;5;
42410;PMS5003;28056;51.112;0.984;2023-04-25T02:54:55;4;4;
42410;PMS5003;28056;51.112;0.984;2023-04-25T02:57:22;6;5;
42410;PMS5003;28056;51.112;0.984;2023-04-25T02:59:49;11;6;
42410;PMS5003;28056;51.112;0.984;2023-04-25T03:02:17;8;5;
42410;PMS5003;28056;51.112;0.984;2023-04-25T03:04:44;7;7;
42410;PMS5003;28056;51.112;0.984;2023-04-25T03:07:11;5;5;
42410;PMS5003;28056;51.112;0.984;2023-04-25T03:09:38;15;5;
42410;PMS5003;28056;51.112;0.984;2023-04-25T03:12:05;5;5;
42410;PMS5003;28056;51.112;0.984;2023-04-25T03:14:32;12;7;
42410;PMS5003;28056;51.112;0.984;2023-04-25T03:17:00;8;8;
42410;PMS5003;28056;51.112;0.984;2023-04-25T03:19:27;9;5;
42410;PMS5003;28056;51.112;0.984;2023-04-25T03:21:54;12;9;
42410;PMS5003;28056;51.112;0.984;2023-04-25T03:24:22;9;5;
42410;PMS5003;28056;51.112;0.984;2023-04-25T03:26:49;11;7;
42410;PMS5003;28056;51.112;0.984;2023-04-25T03:29:16;14;7;
42410;PMS5003;28056;51.112;0.984;2023-04-25T03:31:44;5;5;
42410;PMS5003;28056;51.112;0.984;2023-04-25T03:34:11;7;5;
42410;PMS5003;28056;51.112;0.984;2023-04-25T03:36:38;7;5;
42410;PMS5003;28056;51.112;0.984;2023-04-25T03:39:06;5;5;
42410;PMS5003;28056;51.112;0.984;2023-04-25T03:41:33;7;4;
42410;PMS5003;28056;51.112;0.984;2023-04-25T03:44:00;7;5;
42410;PMS5003;28056;51.112;0.984;2023-04-25T03:46:28;4;4;
42410;PMS5003;28056;51.112;0.984;2023-04-25T03:48:56;11;5;
42410;PMS5003;28056;51.112;0.984;2023-04-25T03:51:23;4;4;
42410;PMS5003;28056;51.112;0.984;2023-04-25T03:53:51;7;5;
42410;PMS5003;28056;51.112;0.984;2023-04-25T03:56:18;4;4;
42410;PMS5003;28056;51.112;0.984;2023-04-25T03:58:47;8;4;
42410;PMS5003;28056;51.112;0.984;2023-04-25T04:01:14;5;5;
42410;PMS5003;28056;51.112;0.984;2023-04-25T04:03:42;11;10;
42410;PMS5003;28056;51.112;0.984;2023-04-25T04:06:10;10;7;
42410;PMS5003;28056;51.112;0.984;2023-04-25T04:08:37;8;7;
42410;PMS5003;28056;51.112;0.984;2023-04-25T04:11:05;7;7;
42410;PMS5003;28056;51.112;0.984;2023-04-25T04:13:32;5;5;
42410;PMS5003;28056;51.112;0.984;2023-04-25T04:15:59;10;8;
42410;PMS5003;28056;51.112;0.984;2023-04-25T04:18:26;10;7;
42410;PMS5003;28056;51.112;0.984;2023-04-25T04:20:54;8;5;
42410;PMS5003;28056;51.112;0.984;2023-04-25T04:23:27;10;7;
42410;PMS5003;28056;51.112;0.984;2023-04-25T04:25:55;5;5;
42410;PMS5003;28056;51.112;0.984;2023-04-25T04:28:22;4;4;
42410;PMS5003;28056;51.112;0.984;2023-04-25T04:30:49;5;5;
42410;PMS5003;28056;51.112;0.984;2023-04-25T04:33:17;5;5;
42410;PMS5003;28056;51.112;0.984;2023-04-25T04:35:45;8;4;
42410;PMS5003;28056;51.112;0.984;2023-04-25T04:38:13;5;2;
42410;PMS5003;28056;51.112;0.984;2023-04-25T04:40:40;8;4;
42410;PMS5003;28056;51.112;0.984;2023-04-25T04:43:07;7;4;
42410;PMS5003;28056;51.112;0.984;2023-04-25T04:45:34;5;5;
42410;PMS5003;28056;51.112;0.984;2023-04-25T04:48:06;4;4;
42410;PMS5003;28056;51.112;0.984;2023-04-25T04:50:33;5;4;
42410;PMS5003;28056;51.112;0.984;2023-04-25T04:53:01;5;5;
42410;PMS5003;28056;51.112;0.984;2023-04-25T04:55:29;5;5;
42410;PMS5003;28056;51.112;0.984;2023-04-25T04:57:56;7;7;
42410;PMS5003;28056;51.112;0.984;2023-04-25T05:00:24;7;4;
42410;PMS5003;28056;51.112;0.984;2023-04-25T05:02:51;4;4;
42410;PMS5003;28056;51.112;0.984;2023-04-25T05:05:19;5;5;
42410;PMS5003;28056;51.112;0.984;2023-04-25T05:07:47;4;4;
42410;PMS5003;28056;51.112;0.984;2023-04-25T05:10:14;8;5;
42410;PMS5003;28056;51.112;0.984;2023-04-25T05:12:42;10;5;
42410;PMS5003;28056;51.112;0.984;2023-04-25T05:15:09;8;4;
42410;PMS5003;28056;51.112;0.984;2023-04-25T05:17:37;5;5;
42410;PMS5003;28056;51.112;0.984;2023-04-25T05:20:04;8;7;
42410;PMS5003;28056;51.112;0.984;2023-04-25T05:22:32;11;4;
42410;PMS5003;28056;51.112;0.984;2023-04-25T05:25:00;2;2;
42410;PMS5003;28056;51.112;0.984;2023-04-25T05:27:27;7;4;
42410;PMS5003;28056;51.112;0.984;2023-04-25T05:29:55;5;5;
42410;PMS5003;28056;51.112;0.984;2023-04-25T05:32:22;5;2;
42410;PMS5003;28056;51.112;0.984;2023-04-25T05:34:49;4;4;
42410;PMS5003;28056;51.112;0.984;2023-04-25T05:37:16;4;4;
42410;PMS5003;28056;51.112;0.984;2023-04-25T05:39:44;2;2;
42410;PMS5003;28056;51.112;0.984;2023-04-25T05:42:11;4;2;
42410;PMS5003;28056;51.112;0.984;2023-04-25T05:44:38;4;4;
42410;PMS5003;28056;51.112;0.984;2023-04-25T05:47:06;7;2;
42410;PMS5003;28056;51.112;0.984;2023-04-25T05:49:33;2;2;
42410;PMS5003;28056;51.112;0.984;2023-04-25T05:52:01;7;7;
42410;PMS5003;28056;51.112;0.984;2023-04-25T05:54:28;11;8;
42410;PMS5003;28056;51.112;0.984;2023-04-25T05:56:56;5;5;
42410;PMS5003;28056;51.112;0.984;2023-04-25T05:59:23;7;5;
42410;PMS5003;28056;51.112;0.984;2023-04-25T06:01:50;7;5;
42410;PMS5003;28056;51.112;0.984;2023-04-25T06:04:18;7;7;
42410;PMS5003;28056;51.112;0.984;2023-04-25T06:06:45;7;4;
42410;PMS5003;28056;51.112;0.984;2023-04-25T06:09:13;5;5;
42410;PMS5003;28056;51.112;0.984;2023-04-25T06:11:40;4;4;
42410;PMS5003;28056;51.112;0.984;2023-04-25T06:14:07;8;4;
42410;PMS5003;28056;51.112;0.984;2023-04-25T06:16:34;11;5;
42410;PMS5003;28056;51.112;0.984;2023-04-25T06:19:01;7;4;
42410;PMS5003;28056;51.112;0.984;2023-04-25T06:21:28;4;2;
42410;PMS5003;28056;51.112;0.984;2023-04-25T06:23:56;5;5;
42410;PMS5003;28056;51.112;0.984;2023-04-25T06:26:23;7;5;
42410;PMS5003;28056;51.112;0.984;2023-04-25T06:28:51;5;5;
42410;PMS5003;28056;51.112;0.984;2023-04-25T06:31:18;4;4;
42410;PMS5003;28056;51.112;0.984;2023-04-25T06:33:46;5;4;
42410;PMS5003;28056;51.112;0.984;2023-04-25T06:36:13;8;5;
42410;PMS5003;28056;51.112;0.984;2023-04-25T06:38:40;8;5;
42410;PMS5003;28056;51.112;0.984;2023-04-25T06:41:07;5;2;
42410;PMS5003;28056;51.112;0.984;2023-04-25T06:43:35;4;4;
42410;PMS5003;28056;51.112;0.984;2023-04-25T06:46:02;5;4;
42410;PMS5003;28056;51.112;0.984;2023-04-25T06:48:29;7;7;
42410;PMS5003;28056;51.112;0.984;2023-04-25T06:50:57;2;2;
42410;PMS5003;28056;51.112;0.984;2023-04-25T06:53:24;7;5;
42410;PMS5003;28056;51.112;0.984;2023-04-25T06:55:51;4;4;
42410;PMS5003;28056;51.112;0.984;2023-04-25T06:58:18;5;5;
42410;PMS5003;28056;51.112;0.984;2023-04-25T07:00:46;4;4;
42410;PMS5003;28056;51.112;0.984;2023-04-25T07:03:13;5;4;
42410;PMS5003;28056;51.112;0.984;2023-04-25T07:05:40;5;5;
42410;PMS5003;28056;51.112;0.984;2023-04-25T07:08:07;5;2;
42410;PMS5003;28056;51.112;0.984;2023-04-25T07:10:34;4;4;
42410;PMS5003;28056;51.112;0.984;2023-04-25T07:13:02;5;5;
42410;PMS5003;28056;51.112;0.984;2023-04-25T07:15:29;9;6;
42410;PMS5003;28056;51.112;0.984;2023-04-25T07:17:56;4;4;
42410;PMS5003;28056;51.112;0.984;2023-04-25T07:20:24;4;4;
42410;PMS5003;28056;51.112;0.984;2023-04-25T07:22:51;4;4;
42410;PMS5003;28056;51.112;0.984;2023-04-25T07:25:18;6;5;
42410;PMS5003;28056;51.112;0.984;2023-04-25T07:27:46;11;6;
42410;PMS5003;28056;51.112;0.984;2023-04-25T07:30:14;8;8;
42410;PMS5003;28056;51.112;0.984;2023-04-25T07:32:41;4;4;
42410;PMS5003;28056;51.112;0.984;2023-04-25T07:35:09;5;5;
42410;PMS5003;28056;51.112;0.984;2023-04-25T07:37:36;5;5;
42410;PMS5003;28056;51.112;0.984;2023-04-25T07:40:03;5;4;
42410;PMS5003;28056;51.112;0.984;2023-04-25T07:42:31;8;5;
42410;PMS5003;28056;51.112;0.984;2023-04-25T07:44:59;8;5;
42410;PMS5003;28056;51.112;0.984;2023-04-25T07:47:28;5;2;
42410;PMS5003;28056;51.112;0.984;2023-04-25T07:49:55;3;3;
42410;PMS5003;28056;51.112;0.984;2023-04-25T07:52:22;5;5;
42410;PMS5003;28056;51.112;0.984;2023-04-25T07:54:50;6;5;
42410;PMS5003;28056;51.112;0.984;2023-04-25T07:57:18;8;5;
42410;PMS5003;28056;51.112;0.984;2023-04-25T07:59:45;6;6;
42410;PMS5003;28056;51.112;0.984;2023-04-25T08:02:12;6;6;
42410;PMS5003;28056;51.112;0.984;2023-04-25T08:04:40;3;2;
42410;PMS5003;28056;51.112;0.984;2023-04-25T08:07:08;6;6;
42410;PMS5003;28056;51.112;0.984;2023-04-25T08:09:36;5;5;
42410;PMS5003;28056;51.112;0.984;2023-04-25T08:12:03;6;6;
42410;PMS5003;28056;51.112;0.984;2023-04-25T08:14:30;10;6;
42410;PMS5003;28056;51.112;0.984;2023-04-25T08:16:58;5;4;
42410;PMS5003;28056;51.112;0.984;2023-04-25T08:19:25;2;2;
42410;PMS5003;28056;51.112;0.984;2023-04-25T08:21:52;5;5;
42410;PMS5003;28056;51.112;0.984;2023-04-25T08:24:19;4;4;
42410;PMS5003;28056;51.112;0.984;2023-04-25T08:26:46;5;3;
42410;PMS5003;28056;51.112;0.984;2023-04-25T08:29:13;5;5;
42410;PMS5003;28056;51.112;0.984;2023-04-25T08:31:40;4;4;
42410;PMS5003;28056;51.112;0.984;2023-04-25T08:34:08;3;3;
42410;PMS5003;28056;51.112;0.984;2023-04-25T08:36:35;14;10;
42410;PMS5003;28056;51.112;0.984;2023-04-25T08:39:02;3;3;
42410;PMS5003;28056;51.112;0.984;2023-04-25T08:41:29;5;5;
42410;PMS5003;28056;51.112;0.984;2023-04-25T08:43:57;3;3;
42410;PMS5003;28056;51.112;0.984;2023-04-25T08:46:25;5;3;
42410;PMS5003;28056;51.112;0.984;2023-04-25T08:48:53;6;5;
42410;PMS5003;28056;51.112;0.984;2023-04-25T08:51:26;7;3;
42410;PMS5003;28056;51.112;0.984;2023-04-25T08:53:57;3;3;
42410;PMS5003;28056;51.112;0.984;2023-04-25T08:56:34;3;3;
42410;PMS5003;28056;51.112;0.984;2023-04-25T08:59:02;3;2;
42410;PMS5003;28056;51.112;0.984;2023-04-25T09:01:30;3;1;
42410;PMS5003;28056;51.112;0.984;2023-04-25T09:03:57;2;2;
42410;PMS5003;28056;51.112;0.984;2023-04-25T09:06:24;5;1;
42410;PMS5003;28056;51.112;0.984;2023-04-25T09:08:51;1;1;
42410;PMS5003;28056;51.112;0.984;2023-04-25T09:11:18;3;1;
42410;PMS5003;28056;51.112;0.984;2023-04-25T09:13:45;2;2;
42410;PMS5003;28056;51.112;0.984;2023-04-25T09:16:12;2;2;
42410;PMS5003;28056;51.112;0.984;2023-04-25T09:18:39;5;5;
42410;PMS5003;28056;51.112;0.984;2023-04-25T09:21:07;3;2;
42410;PMS5003;28056;51.112;0.984;2023-04-25T09:23:39;3;3;
42410;PMS5003;28056;51.112;0.984;2023-04-25T09:26:07;5;3;
42410;PMS5003;28056;51.112;0.984;2023-04-25T09:28:34;2;2;
42410;PMS5003;28056;51.112;0.984;2023-04-25T09:31:02;6;3;
42410;PMS5003;28056;51.112;0.984;2023-04-25T09:33:30;3;3;
42410;PMS5003;28056;51.112;0.984;2023-04-25T09:36:01;5;2;
42410;PMS5003;28056;51.112;0.984;2023-04-25T09:38:30;3;2;
42410;PMS5003;28056;51.112;0.984;2023-04-25T09:40:59;5;2;
42410;PMS5003;28056;51.112;0.984;2023-04-25T09:43:27;3;3;
42410;PMS5003;28056;51.112;0.984;2023-04-25T09:45:54;2;2;
42410;PMS5003;28056;51.112;0.984;2023-04-25T09:48:24;1;1;
42410;PMS5003;28056;51.112;0.984;2023-04-25T09:51:09;3;1;
42410;PMS5003;28056;51.112;0.984;2023-04-25T09:53:38;4;4;
42410;PMS5003;28056;51.112;0.984;2023-04-25T09:56:07;1;1;
42410;PMS5003;28056;51.112;0.984;2023-04-25T09:58:36;5;2;
42410;PMS5003;28056;51.112;0.984;2023-04-25T10:01:06;3;3;
42410;PMS5003;28056;51.112;0.984;2023-04-25T10:03:35;1;1;
42410;PMS5003;28056;51.112;0.984;2023-04-25T10:06:07;2;2;
42410;PMS5003;28056;51.112;0.984;2023-04-25T10:08:38;2;2;
42410;PMS5003;28056;51.112;0.984;2023-04-25T10:11:07;5;2;
42410;PMS5003;28056;51.112;0.984;2023-04-25T10:13:35;2;0;
42410;PMS5003;28056;51.112;0.984;2023-04-25T10:16:03;3;3;
42410;PMS5003;28056;51.112;0.984;2023-04-25T10:18:32;3;3;
42410;PMS5003;28056;51.112;0.984;2023-04-25T10:21:00;5;3;
42410;PMS5003;28056;51.112;0.984;2023-04-25T10:23:29;2;2;
42410;PMS5003;28056;51.112;0.984;2023-04-25T10:25:58;2;2;
42410;PMS5003;28056;51.112;0.984;2023-04-25T10:28:26;3;2;
42410;PMS5003;28056;51.112;0.984;2023-04-25T10:30:57;2;2;
42410;PMS5003;28056;51.112;0.984;2023-04-25T10:33:40;6;2;
42410;PMS5003;28056;51.112;0.984;2023-04-25T10:36:11;4;3;
42410;PMS5003;28056;51.112;0.984;2023-04-25T10:38:39;3;3;
42410;PMS5003;28056;51.112;0.984;2023-04-25T10:41:09;3;3;
42410;PMS5003;28056;51.112;0.984;2023-04-25T10:43:38;3;3;
42410;PMS5003;28056;51.112;0.984;2023-04-25T10:46:15;1;1;
42410;PMS5003;28056;51.112;0.984;2023-04-25T10:48:46;3;3;
42410;PMS5003;28056;51.112;0.984;2023-04-25T10:51:17;3;2;
42410;PMS5003;28056;51.112;0.984;2023-04-25T10:53:46;1;1;
42410;PMS5003;28056;51.112;0.984;2023-04-25T10:56:25;1;1;
42410;PMS5003;28056;51.112;0.984;2023-04-25T10:59:11;2;1;
42410;PMS5003;28056;51.112;0.984;2023-04-25T11:01:40;2;2;
42410;PMS5003;28056;51.112;0.984;2023-04-25T11:04:19;2;1;
42410;PMS5003;28056;51.112;0.984;2023-04-25T11:06:51;3;3;
42410;PMS5003;28056;51.112;0.984;2023-04-25T11:09:29;2;2;
42410;PMS5003;28056;51.112;0.984;2023-04-25T11:11:57;7;3;
42410;PMS5003;28056;51.112;0.984;2023-04-25T11:14:25;2;2;
42410;PMS5003;28056;51.112;0.984;2023-04-25T11:16:53;3;3;
42410;PMS5003;28056;51.112;0.984;2023-04-25T11:19:21;3;1;
42410;PMS5003;28056;51.112;0.984;2023-04-25T11:21:48;4;3;
42410;PMS5003;28056;51.112;0.984;2023-04-25T11:24:16;4;2;
42410;PMS5003;28056;51.112;0.984;2023-04-25T11:26:44;4;3;
42410;PMS5003;28056;51.112;0.984;2023-04-25T11:29:13;3;3;
42410;PMS5003;28056;51.112;0.984;2023-04-25T11:31:43;2;2;
42410;PMS5003;28056;51.112;0.984;2023-04-25T11:34:11;3;2;
42410;PMS5003;28056;51.112;0.984;2023-04-25T11:36:43;1;1;
42410;PMS5003;28056;51.112;0.984;2023-04-25T11:39:11;3;2;
42410;PMS5003;28056;51.112;0.984;2023-04-25T11:41:39;3;3;
42410;PMS5003;28056;51.112;0.984;2023-04-25T11:44:07;1;1;
42410;PMS5003;28056;51.112;0.984;2023-04-25T11:46:35;1;1;
42410;PMS5003;28056;51.112;0.984;2023-04-25T11:49:03;3;1;
42410;PMS5003;28056;51.112;0.984;2023-04-25T11:51:37;3;3;
42410;PMS5003;28056;51.112;0.984;2023-04-25T11:54:05;2;2;
42410;PMS5003;28056;51.112;0.984;2023-04-25T11:56:33;2;2;
42410;PMS5003;28056;51.112;0.984;2023-04-25T11:59:00;2;2;
42410;PMS5003;28056;51.112;0.984;2023-04-25T12:01:30;2;1;
42410;PMS5003;28056;51.112;0.984;2023-04-25T12:03:58;2;2;
42410;PMS5003;28056;51.112;0.984;2023-04-25T12:06:37;2;2;
42410;PMS5003;28056;51.112;0.984;2023-04-25T12:09:06;5;3;
42410;PMS5003;28056;51.112;0.984;2023-04-25T12:11:40;2;2;
42410;PMS5003;28056;51.112;0.984;2023-04-25T12:14:08;5;1;
42410;PMS5003;28056;51.112;0.984;2023-04-25T12:16:43;1;1;
42410;PMS5003;28056;51.112;0.984;2023-04-25T12:19:13;4;2;
42410;PMS5003;28056;51.112;0.984;2023-04-25T12:21:42;3;2;
42410;PMS5003;28056;51.112;0.984;2023-04-25T12:24:10;2;2;
42410;PMS5003;28056;51.112;0.984;2023-04-25T12:26:58;2;2;
42410;PMS5003;28056;51.112;0.984;2023-04-25T12:29:28;2;1;
42410;PMS5003;28056;51.112;0.984;2023-04-25T12:31:57;1;1;
42410;PMS5003;28056;51.112;0.984;2023-04-25T12:34:25;2;2;
42410;PMS5003;28056;51.112;0.984;2023-04-25T12:36:53;1;1;
42410;PMS5003;28056;51.112;0.984;2023-04-25T12:39:22;3;3;
42410;PMS5003;28056;51.112;0.984;2023-04-25T12:41:51;1;1;
42410;PMS5003;28056;51.112;0.984;2023-04-25T12:44:18;2;2;
42410;PMS5003;28056;51.112;0.984;2023-04-25T12:46:46;1;1;
42410;PMS5003;28056;51.112;0.984;2023-04-25T12:49:14;3;3;
42410;PMS5003;28056;51.112;0.984;2023-04-25T12:51:42;1;1;
42410;PMS5003;28056;51.112;0.984;2023-04-25T12:54:10;4;2;
42410;PMS5003;28056;51.112;0.984;2023-04-25T12:56:37;1;1;
42410;PMS5003;28056;51.112;0.984;2023-04-25T12:59:05;1;1;
42410;PMS5003;28056;51.112;0.984;2023-04-25T13:01:33;1;1;
42410;PMS5003;28056;51.112;0.984;2023-04-25T13:04:01;1;1;
42410;PMS5003;28056;51.112;0.984;2023-04-25T13:06:29;2;1;
42410;PMS5003;28056;51.112;0.984;2023-04-25T13:08:56;1;1;
42410;PMS5003;28056;51.112;0.984;2023-04-25T13:11:24;5;4;
42410;PMS5003;28056;51.112;0.984;2023-04-25T13:13:51;1;1;
42410;PMS5003;28056;51.112;0.984;2023-04-25T13:16:19;3;3;
42410;PMS5003;28056;51.112;0.984;2023-04-25T13:18:47;2;2;
42410;PMS5003;28056;51.112;0.984;2023-04-25T13:21:14;2;2;
42410;PMS5003;28056;51.112;0.984;2023-04-25T13:23:42;2;2;
42410;PMS5003;28056;51.112;0.984;2023-04-25T13:26:10;1;1;
42410;PMS5003;28056;51.112;0.984;2023-04-25T13:28:37;3;2;
42410;PMS5003;28056;51.112;0.984;2023-04-25T13:31:05;1;1;
42410;PMS5003;28056;51.112;0.984;2023-04-25T13:33:32;3;2;
42410;PMS5003;28056;51.112;0.984;2023-04-25T13:36:00;4;2;
42410;PMS5003;28056;51.112;0.984;2023-04-25T13:38:28;3;3;
42410;PMS5003;28056;51.112;0.984;2023-04-25T13:40:55;3;3;
42410;PMS5003;28056;51.112;0.984;2023-04-25T13:43:22;5;3;
42410;PMS5003;28056;51.112;0.984;2023-04-25T13:45:50;2;2;
42410;PMS5003;28056;51.112;0.984;2023-04-25T13:48:17;2;2;
42410;PMS5003;28056;51.112;0.984;2023-04-25T13:50:45;3;3;
42410;PMS5003;28056;51.112;0.984;2023-04-25T13:53:13;2;2;
42410;PMS5003;28056;51.112;0.984;2023-04-25T13:55:41;1;1;
42410;PMS5003;28056;51.112;0.984;2023-04-25T13:58:08;3;3;
42410;PMS5003;28056;51.112;0.984;2023-04-25T14:00:36;5;4;
42410;PMS5003;28056;51.112;0.984;2023-04-25T14:03:04;3;2;
42410;PMS5003;28056;51.112;0.984;2023-04-25T14:05:32;2;2;
42410;PMS5003;28056;51.112;0.984;2023-04-25T14:07:59;3;2;
42410;PMS5003;28056;51.112;0.984;2023-04-25T14:10:27;5;3;
42410;PMS5003;28056;51.112;0.984;2023-04-25T14:12:55;4;4;
42410;PMS5003;28056;51.112;0.984;2023-04-25T14:15:22;3;3;
42410;PMS5003;28056;51.112;0.984;2023-04-25T14:17:51;3;3;
42410;PMS5003;28056;51.112;0.984;2023-04-25T14:20:18;4;4;
42410;PMS5003;28056;51.112;0.984;2023-04-25T14:22:46;3;3;
42410;PMS5003;28056;51.112;0.984;2023-04-25T14:25:13;4;4;
42410;PMS5003;28056;51.112;0.984;2023-04-25T14:27:41;3;1;
42410;PMS5003;28056;51.112;0.984;2023-04-25T14:30:09;4;4;
42410;PMS5003;28056;51.112;0.984;2023-04-25T14:32:37;2;2;
42410;PMS5003;28056;51.112;0.984;2023-04-25T14:35:05;2;2;
42410;PMS5003;28056;51.112;0.984;2023-04-25T14:37:33;2;2;
42410;PMS5003;28056;51.112;0.984;2023-04-25T14:40:00;3;3;
42410;PMS5003;28056;51.112;0.984;2023-04-25T14:42:28;2;2;
42410;PMS5003;28056;51.112;0.984;2023-04-25T14:44:56;1;1;
42410;PMS5003;28056;51.112;0.984;2023-04-25T14:47:23;3;3;
42410;PMS5003;28056;51.112;0.984;2023-04-25T14:49:50;3;1;
42410;PMS5003;28056;51.112;0.984;2023-04-25T14:52:18;1;1;
42410;PMS5003;28056;51.112;0.984;2023-04-25T14:54:46;2;2;
42410;PMS5003;28056;51.112;0.984;2023-04-25T14:57:14;2;2;
42410;PMS5003;28056;51.112;0.984;2023-04-25T14:59:41;4;3;
42410;PMS5003;28056;51.112;0.984;2023-04-25T15:02:09;2;2;
42410;PMS5003;28056;51.112;0.984;2023-04-25T15:04:37;2;2;
42410;PMS5003;28056;51.112;0.984;2023-04-25T15:07:05;2;2;
42410;PMS5003;28056;51.112;0.984;2023-04-25T15:09:32;4;3;
42410;PMS5003;28056;51.112;0.984;2023-04-25T15:12:00;7;3;
42410;PMS5003;28056;51.112;0.984;2023-04-25T15:14:29;4;3;
42410;PMS5003;28056;51.112;0.984;2023-04-25T15:16:57;3;3;
42410;PMS5003;28056;51.112;0.984;2023-04-25T15:19:24;3;3;
42410;PMS5003;28056;51.112;0.984;2023-04-25T15:21:52;1;1;
42410;PMS5003;28056;51.112;0.984;2023-04-25T15:24:20;3;2;
42410;PMS5003;28056;51.112;0.984;2023-04-25T15:26:46;3;3;
42410;PMS5003;28056;51.112;0.984;2023-04-25T15:29:14;5;3;
42410;PMS5003;28056;51.112;0.984;2023-04-25T15:31:42;3;3;
42410;PMS5003;28056;51.112;0.984;2023-04-25T15:34:10;5;4;
42410;PMS5003;28056;51.112;0.984;2023-04-25T15:36:37;3;3;
42410;PMS5003;28056;51.112;0.984;2023-04-25T15:39:05;5;3;
42410;PMS5003;28056;51.112;0.984;2023-04-25T15:41:33;2;2;
42410;PMS5003;28056;51.112;0.984;2023-04-25T15:44:01;3;3;
42410;PMS5003;28056;51.112;0.984;2023-04-25T15:46:28;5;3;
42410;PMS5003;28056;51.112;0.984;2023-04-25T15:48:56;4;4;
42410;PMS5003;28056;51.112;0.984;2023-04-25T15:51:23;3;3;
42410;PMS5003;28056;51.112;0.984;2023-04-25T15:53:51;4;3;
42410;PMS5003;28056;51.112;0.984;2023-04-25T15:56:19;3;3;
42410;PMS5003;28056;51.112;0.984;2023-04-25T15:58:47;4;4;
42410;PMS5003;28056;51.112;0.984;2023-04-25T16:01:14;4;3;
42410;PMS5003;28056;51.112;0.984;2023-04-25T16:03:42;4;4;
42410;PMS5003;28056;51.112;0.984;2023-04-25T16:06:10;4;4;
42410;PMS5003;28056;51.112;0.984;2023-04-25T16:08:37;4;3;
42410;PMS5003;28056;51.112;0.984;2023-04-25T16:11:05;4;4;
42410;PMS5003;28056;51.112;0.984;2023-04-25T16:13:33;4;4;
42410;PMS5003;28056;51.112;0.984;2023-04-25T16:16:01;7;3;
42410;PMS5003;28056;51.112;0.984;2023-04-25T16:18:28;3;3;
42410;PMS5003;28056;51.112;0.984;2023-04-25T16:20:56;3;3;
42410;PMS5003;28056;51.112;0.984;2023-04-25T16:23:23;3;3;
42410;PMS5003;28056;51.112;0.984;2023-04-25T16:25:51;9;4;
42410;PMS5003;28056;51.112;0.984;2023-04-25T16:28:19;5;3;
42410;PMS5003;28056;51.112;0.984;2023-04-25T16:30:47;8;4;
42410;PMS5003;28056;51.112;0.984;2023-04-25T16:33:14;2;2;
42410;PMS5003;28056;51.112;0.984;2023-04-25T16:35:42;2;2;
42410;PMS5003;28056;51.112;0.984;2023-04-25T16:38:10;7;7;
42410;PMS5003;28056;51.112;0.984;2023-04-25T16:40:38;3;3;
42410;PMS5003;28056;51.112;0.984;2023-04-25T16:43:05;4;4;
42410;PMS5003;28056;51.112;0.984;2023-04-25T16:45:33;4;3;
42410;PMS5003;28056;51.112;0.984;2023-04-25T16:48:01;6;6;
42410;PMS5003;28056;51.112;0.984;2023-04-25T16:50:29;3;3;
42410;PMS5003;28056;51.112;0.984;2023-04-25T16:52:57;4;4;
42410;PMS5003;28056;51.112;0.984;2023-04-25T16:55:24;4;3;
42410;PMS5003;28056;51.112;0.984;2023-04-25T16:57:51;3;3;